Flight Track Log - Related Links

Times and Time Zones

All times are in EST time to prevent confusion due to time zone crossing. See the AFL150 flight status page for this flight to view local times or setup timezone preferences in your user account.

Time Position Orientation Groundspeed Altitude Reporting Facility
EST Latitude Longitude Course Direction KTS MPH feet Rate Location/Type
Thu 04:48:00 AM 56.0483 37.0771 311° West  Level FlightAware
Thu 04:49:00 AM 56.1228 36.9245 311° West  Level FlightAware
Thu 04:50:00 AM 56.1972 36.7714 311° West  Level FlightAware
Thu 04:51:00 AM 56.2713 36.6177 311° West  Level FlightAware
Thu 04:52:00 AM 56.3453 36.4633 311° West  Level FlightAware
Thu 04:53:00 AM 56.4191 36.3084 311° West  Level FlightAware
Thu 04:54:00 AM 56.4926 36.1529 311° West  Level FlightAware
Thu 04:55:00 AM 56.5660 35.9967 311° West  Level FlightAware
Thu 04:56:00 AM 56.6392 35.8400 310° West  Level FlightAware
Thu 04:57:00 AM 56.7122 35.6827 310° West  Level FlightAware
Thu 04:58:00 AM 56.7850 35.5247 310° West  Level FlightAware
Thu 04:59:00 AM 56.8576 35.3661 310° West  Level FlightAware
Thu 05:00:00 AM 56.9300 35.2069 310° West  Level FlightAware
Thu 05:01:00 AM 57.0022 35.0471 310° West  Level FlightAware
Thu 05:02:00 AM 57.0742 34.8867 310° West  Level FlightAware
Thu 05:03:00 AM 57.1459 34.7257 309° West  Level FlightAware
Thu 05:04:00 AM 57.2175 34.5640 309° West  Level FlightAware
Thu 05:05:00 AM 57.2889 34.4017 309° West  Level FlightAware
Thu 05:06:00 AM 57.3600 34.2388 309° West  Level FlightAware
Thu 05:07:00 AM 57.3398 34.2833 306° West  Level FlightAware
Thu 05:08:00 AM 57.4058 34.1129 306° West  Level FlightAware
Thu 05:09:00 AM 57.4715 33.9417 306° West  Level FlightAware
Thu 05:10:00 AM 57.5370 33.7700 305° West  Level FlightAware
Thu 05:11:00 AM 57.6022 33.5977 305° West  Level FlightAware
Thu 05:12:00 AM 57.6673 33.4248 305° West  Level FlightAware
Thu 05:13:00 AM 57.7320 33.2512 305° West  Level FlightAware
Thu 05:14:00 AM 57.7966 33.0770 305° West  Level FlightAware
Thu 05:15:00 AM 57.8609 32.9022 305° West  Level FlightAware
Thu 05:16:00 AM 57.9250 32.7267 305° West  Level FlightAware
Thu 05:17:00 AM 57.9888 32.5507 304° West  Level FlightAware
Thu 05:18:00 AM 58.0524 32.3740 304° West  Level FlightAware
Thu 05:19:00 AM 58.1157 32.1966 304° West  Level FlightAware
Thu 05:20:00 AM 58.1788 32.0187 304° West  Level FlightAware
Thu 05:21:00 AM 58.2416 31.8401 304° West  Level FlightAware
Thu 05:22:00 AM 58.3042 31.6609 304° West  Level FlightAware
Thu 05:22:50 AM 56.8238 30.4361 304° West 427 491 34,000  Level FlightAware
Thu 05:28:55 AM 57.2171 29.3504 301° West 420 483 34,000  Level FlightAware
Thu 05:29:56 AM 57.2871 29.1518 303° West 418 481 34,000  Level FlightAware
Thu 05:30:56 AM 57.3497 28.9733 303° West 419 482 34,000  Level FlightAware
Thu 05:31:51 AM 57.3953 28.8422 303° West 421 484 34,000  Level FlightAware
Thu 05:32:22 AM 57.4266 28.7518 303° West 421 484 34,000  Level FlightAware
Thu 05:33:08 AM 57.4888 28.5715 303° West 417 480 34,000  Level FlightAware
Thu 05:33:57 AM 57.5398 28.4226 303° West 416 479 34,000  Level FlightAware
Thu 05:34:59 AM 57.6023 28.2387 302° West 416 479 34,000  Level FlightAware
Thu 05:35:53 AM 57.5398 28.4226 122° Southeast 416 479 34,000  Level FlightAware
Thu 05:37:57 AM 57.7858 27.6912 302° West 420 483 34,000  Level FlightAware
Thu 05:38:55 AM 57.7858 27.6912 302° West 417 480 34,000  Level FlightAware
Thu 05:39:58 AM 57.8816 27.3091 295° West 416 479 34,000  Level FlightAware
Thu 05:41:11 AM 57.9329 27.0540 291° West 413 475 34,000  Level FlightAware
Thu 05:42:13 AM 57.9363 27.0370 291° West 410 472 34,000  Level FlightAware
Thu 05:42:54 AM 57.9993 26.7198 291° West 408 470 34,000  Level FlightAware
Thu 05:44:56 AM 58.0804 26.3046 290° West 406 467 34,000  Level FlightAware
Thu 05:45:56 AM 58.1192 26.1026 290° West 406 467 34,000  Level FlightAware
Thu 05:46:51 AM 58.1538 25.9207 290° West 406 467 34,000  Level FlightAware
Thu 05:49:46 AM 58.2567 25.3693 297° West 395 455 34,000  Level FlightAware
Thu 06:09:31 AM 58.8347 21.5181 294° West 365 420 34,000  Level FlightAware
Thu 06:09:38 AM 58.8406 21.4853 289° West 362 417 34,000  Level FlightAware
Thu 06:10:22 AM 58.8647 21.3499 289° West 364 419 34,000  Level FlightAware
Thu 06:10:56 AM 58.8825 21.2452 288° West 365 420 34,000  Level FlightAware
Thu 06:11:32 AM 58.9010 21.1344 288° West 365 420 34,000  Level FlightAware
Thu 06:12:12 AM 58.9211 21.0134 288° West 366 421 34,000  Level FlightAware
Thu 06:12:54 AM 58.9425 20.8832 288° West 366 421 34,000  Level FlightAware
Thu 06:13:34 AM 58.9633 20.7558 288° West 368 423 34,000  Level FlightAware
Thu 06:13:50 AM 58.9718 20.7036 287° West 366 421 34,000  Level FlightAware
Thu 06:14:32 AM 58.9928 20.5734 287° West 370 426 34,000  Level FlightAware
Thu 06:15:13 AM 59.0137 20.4431 287° West 371 427 34,000  Level FlightAware
Thu 06:15:56 AM 59.0344 20.3124 287° West 369 425 34,000  Level FlightAware
Thu 06:16:36 AM 59.0547 20.1839 287° West 371 427 34,000  Level FlightAware
Thu 06:17:16 AM 59.0752 20.0536 287° West 372 428 34,000  Level FlightAware
Thu 06:17:56 AM 59.0950 19.9257 287° West 373 429 34,000  Level FlightAware
Thu 06:18:37 AM 59.1152 19.7954 287° West 373 429 34,000  Level FlightAware
Thu 06:19:16 AM 59.1346 19.6682 287° West 373 429 34,000  Level FlightAware
Thu 06:19:57 AM 59.1547 19.5361 287° West 373 429 34,000  Level FlightAware
Thu 06:20:37 AM 59.1734 19.4124 286° West 374 430 34,000  Level FlightAware
Thu 06:21:16 AM 59.1925 19.2847 286° West 376 433 34,000  Level FlightAware
Thu 06:21:56 AM 59.2123 19.1513 286° West 378 435 34,000  Level FlightAware
Thu 06:22:37 AM 59.2318 19.0193 286° West 379 436 34,000  Level FlightAware
Thu 06:23:16 AM 59.2506 18.8906 286° West 379 436 34,000  Level FlightAware
Thu 06:23:56 AM 59.2695 18.7600 286° West 380 437 34,000  Level FlightAware
Thu 06:24:37 AM 59.2881 18.6302 286° West 380 437 34,000  Level FlightAware
Thu 06:25:16 AM 59.3075 18.4949 286° West 381 438 34,000  Level FlightAware
Thu 06:25:57 AM 59.3269 18.3572 286° West 381 438 34,000  Level FlightAware
Thu 06:26:37 AM 59.3454 18.2256 285° West 382 440 34,000  Level FlightAware
Thu 06:27:16 AM 59.3632 18.0976 285° West 379 436 34,000  Level FlightAware
Thu 06:27:57 AM 59.3820 17.9618 285° West 378 435 34,000  Level FlightAware
Thu 06:28:38 AM 59.4006 17.8260 285° West 378 435 34,000  Level FlightAware
Thu 06:29:19 AM 59.4176 17.6999 285° West 378 435 34,000  Level FlightAware
Thu 06:29:59 AM 59.4362 17.5617 285° West 377 434 34,000  Level FlightAware
Thu 06:30:39 AM 59.4542 17.4261 285° West 376 433 34,000  Level FlightAware
Thu 06:31:20 AM 59.4709 17.3004 285° West 374 430 34,000  Level FlightAware
Thu 06:32:00 AM 59.4887 17.1647 285° West 374 430 34,000  Level FlightAware
Thu 06:32:40 AM 59.5061 17.0308 284° West 374 430 34,000  Level FlightAware
Thu 06:33:20 AM 59.5230 16.8991 284° West 373 429 34,000  Level FlightAware
Thu 06:34:00 AM 59.5397 16.7681 284° West 374 430 34,000  Level FlightAware
Thu 06:34:40 AM 59.5546 16.6505 284° West 375 432 34,000  Level FlightAware
Thu 06:35:20 AM 59.5730 16.5037 284° West 375 432 34,000  Level FlightAware
Thu 06:36:00 AM 59.5895 16.3710 284° West 375 432 34,000  Level FlightAware
Thu 06:36:40 AM 59.6057 16.2400 284° West 374 430 34,000  Level FlightAware
Thu 06:37:20 AM 59.6220 16.1050 284° West 374 430 34,000  Level FlightAware
Thu 06:37:58 AM 59.6361 15.9889 284° West 372 428 34,000  Level FlightAware
Thu 06:38:12 AM 59.6433 15.9320 284° West 372 428 34,000  Level FlightAware
Thu 07:15:32 AM 60.7045 7.7862 282° West 433 498 34,000  Level FlightAware
Thu 07:16:12 AM 60.7197 7.6267 281° West 436 502 34,000  Level FlightAware
Thu 07:16:49 AM 60.7341 7.4747 281° West 439 505 34,000  Level FlightAware
Thu 07:17:32 AM 60.7503 7.3000 281° West 441 507 34,000  Level FlightAware
Thu 07:18:11 AM 60.7647 7.1420 281° West 443 510 34,000  Level FlightAware
Thu 07:18:49 AM 60.7788 6.9845 280° West 446 513 34,000  Level FlightAware
Thu 07:19:32 AM 60.7947 6.8055 280° West 448 516 34,000  Level FlightAware
Thu 07:20:11 AM 60.8088 6.6446 280° West 449 517 34,000  Level FlightAware
Thu 07:20:52 AM 60.8234 6.4736 280° West 449 517 34,000  Level FlightAware
Thu 07:21:31 AM 60.8375 6.3077 280° West 453 521 34,000  Level FlightAware
Thu 07:22:11 AM 60.8515 6.1403 280° West 452 520 34,000  Level FlightAware
Thu 07:22:51 AM 60.8654 5.9720 280° West 449 517 34,000  Level FlightAware
Thu 07:25:00 AM 60.9080 5.4797 280° West  Level Estimated
Thu 07:26:00 AM 60.9272 5.2504 280° West  Level Estimated
Thu 07:27:00 AM 60.9461 5.0207 280° West  Level Estimated
Thu 07:28:00 AM 60.9645 4.7908 279° West  Level Estimated
Thu 07:29:00 AM 60.9826 4.5606 279° West  Level Estimated
Thu 07:30:00 AM 61.0002 4.3302 279° West  Level Estimated
Thu 07:31:00 AM 61.0175 4.0995 279° West  Level Estimated
Thu 07:32:00 AM 61.0344 3.8685 279° West  Level Estimated
Thu 07:33:00 AM 61.0508 3.6374 278° West  Level Estimated
Thu 07:34:00 AM 61.0669 3.4059 278° West  Level Estimated
Thu 07:35:00 AM 61.0826 3.1743 278° West  Level Estimated
Thu 07:36:00 AM 61.0979 2.9424 278° West  Level Estimated
Thu 07:37:00 AM 61.1128 2.7103 278° West  Level Estimated
Thu 07:38:00 AM 61.1272 2.4780 277° West  Level Estimated
Thu 07:39:00 AM 61.1413 2.2454 277° West  Level Estimated
Thu 07:40:00 AM 61.1550 2.0127 277° West  Level Estimated
Thu 07:41:00 AM 61.1683 1.7798 277° West  Level Estimated
Thu 07:42:00 AM 61.1812 1.5467 277° West  Level Estimated
Thu 07:43:00 AM 61.1937 1.3133 276° West  Level Estimated
Thu 07:44:00 AM 61.2058 1.0798 276° West  Level Estimated
Thu 07:45:00 AM 61.2175 0.8462 276° West  Level Estimated
Thu 07:46:00 AM 61.2287 0.6123 276° West  Level Estimated
Thu 07:47:00 AM 61.2396 0.3783 276° West  Level Estimated
Thu 07:48:00 AM 61.2501 0.1442 275° West  Level Estimated
Thu 07:49:00 AM 61.2602 -0.0902 275° West  Level Estimated
Thu 07:50:00 AM 61.2699 -0.3246 275° West  Level Estimated
Thu 07:51:00 AM 61.2791 -0.5592 275° West  Level Estimated
Thu 07:52:00 AM 61.2880 -0.7940 275° West  Level Estimated
Thu 07:53:00 AM 61.2964 -1.0289 274° West  Level Estimated
Thu 07:54:00 AM 61.3045 -1.2639 274° West  Level Estimated
Thu 07:55:00 AM 61.3121 -1.4990 274° West  Level Estimated
Thu 07:56:00 AM 61.3194 -1.7342 274° West  Level Estimated
Thu 07:57:00 AM 61.3262 -1.9695 274° West  Level Estimated
Thu 07:58:00 AM 61.3326 -2.2050 273° West  Level Estimated
Thu 07:59:00 AM 61.3386 -2.4405 273° West  Level Estimated
Thu 08:00:00 AM 61.3442 -2.6761 273° West  Level Estimated
Thu 08:01:00 AM 61.3494 -2.9118 273° West  Level Estimated
Thu 08:02:00 AM 61.3542 -3.1476 273° West  Level Estimated
Thu 08:03:00 AM 61.3586 -3.3834 272° West  Level Estimated
Thu 08:04:00 AM 61.3626 -3.6193 272° West  Level Estimated
Thu 08:05:00 AM 61.3661 -3.8553 272° West  Level Estimated
Thu 08:06:00 AM 61.3693 -4.0913 272° West  Level Estimated
Thu 08:07:00 AM 61.3720 -4.3273 271° West  Level Estimated
Thu 08:08:00 AM 61.3744 -4.5634 271° West  Level Estimated
Thu 08:09:00 AM 61.3763 -4.7995 271° West  Level Estimated
Thu 08:10:00 AM 61.3778 -5.0357 271° West  Level Estimated
Thu 08:11:00 AM 61.3789 -5.2719 271° West  Level Estimated
Thu 08:12:00 AM 61.3796 -5.5080 270° West  Level Estimated
Thu 08:13:00 AM 61.3799 -5.7442 270° West  Level Estimated
Thu 08:14:00 AM 61.3798 -5.9804 270° West  Level Estimated
Thu 08:15:00 AM 61.3793 -6.2166 270° West  Level Estimated
Thu 08:16:00 AM 61.3783 -6.4528 270° West  Level Estimated
Thu 08:17:00 AM 61.3770 -6.6890 269° West  Level Estimated
Thu 08:18:00 AM 61.3752 -6.9251 269° West  Level Estimated
Thu 08:19:00 AM 61.3731 -7.1612 269° West  Level Estimated
Thu 08:20:00 AM 61.3705 -7.3973 269° West  Level Estimated
Thu 08:21:00 AM 61.3675 -7.6333 269° West  Level Estimated
Thu 08:22:00 AM 61.3641 -7.8693 268° West  Level Estimated
Thu 08:23:00 AM 61.3603 -8.1052 268° West  Level Estimated
Thu 08:24:00 AM 61.3561 -8.3411 268° West  Level Estimated
Thu 08:25:00 AM 61.3515 -8.5769 268° West  Level Estimated
Thu 08:26:00 AM 61.3465 -8.8126 268° West  Level Estimated
Thu 08:27:00 AM 61.3411 -9.0483 267° West  Level Estimated
Thu 08:28:00 AM 61.3352 -9.2838 267° West  Level Estimated
Thu 08:29:00 AM 61.3290 -9.5193 267° West  Level Estimated
Thu 08:30:00 AM 61.3223 -9.7547 267° West  Level Estimated
Thu 08:31:00 AM 61.3153 -9.9899 267° West  Level Estimated
Thu 08:32:00 AM 61.3078 -10.2251 266° West  Level Estimated
Thu 08:33:00 AM 61.2999 -10.4601 266° West  Level Estimated
Thu 08:34:00 AM 61.2916 -10.6951 266° West  Level Estimated
Thu 08:35:00 AM 61.2829 -10.9299 266° West  Level Estimated
Thu 08:36:00 AM 61.2738 -11.1645 265° West  Level Estimated
Thu 08:37:00 AM 61.2644 -11.3991 265° West  Level Estimated
Thu 08:38:00 AM 61.2545 -11.6335 265° West  Level Estimated
Thu 08:39:00 AM 61.2441 -11.8677 265° West  Level Estimated
Thu 08:40:00 AM 61.2334 -12.1018 265° West  Level Estimated
Thu 08:41:00 AM 61.2223 -12.3357 264° West  Level Estimated
Thu 08:42:00 AM 61.2108 -12.5694 264° West  Level Estimated
Thu 08:43:00 AM 61.1989 -12.8030 264° West  Level Estimated
Thu 08:44:00 AM 61.1866 -13.0364 264° West  Level Estimated
Thu 08:45:00 AM 61.1739 -13.2696 264° West  Level Estimated
Thu 08:46:00 AM 61.1607 -13.5026 263° West  Level Estimated
Thu 08:47:00 AM 61.1472 -13.7354 263° West  Level Estimated
Thu 08:48:00 AM 61.1333 -13.9681 263° West  Level Estimated
Thu 08:49:00 AM 61.1190 -14.2005 263° West  Level Estimated
Thu 08:50:00 AM 61.1043 -14.4327 263° West  Level Estimated
Thu 08:51:00 AM 61.0891 -14.6646 262° West  Level Estimated
Thu 08:52:00 AM 61.0736 -14.8964 262° West  Level Estimated
Thu 08:53:00 AM 61.0577 -15.1279 262° West  Level Estimated
Thu 08:54:00 AM 61.0414 -15.3592 262° West  Level Estimated
Thu 08:55:00 AM 61.0247 -15.5903 262° West  Level Estimated
Thu 08:56:00 AM 61.0076 -15.8211 261° West  Level Estimated
Thu 08:57:00 AM 60.9901 -16.0516 261° West  Level Estimated
Thu 08:58:00 AM 60.9723 -16.2819 261° West  Level Estimated
Thu 08:59:00 AM 60.9540 -16.5119 261° West  Level Estimated
Thu 09:00:00 AM 60.9353 -16.7417 261° West  Level Estimated
Thu 09:01:00 AM 60.9163 -16.9712 260° West  Level Estimated
Thu 09:02:00 AM 60.8968 -17.2004 260° West  Level Estimated
Thu 09:03:00 AM 60.8770 -17.4293 260° West  Level Estimated
Thu 09:04:00 AM 60.8568 -17.6580 260° West  Level Estimated
Thu 09:05:00 AM 60.8362 -17.8863 260° West  Level Estimated
Thu 09:06:00 AM 60.8152 -18.1144 259° West  Level Estimated
Thu 09:07:00 AM 60.7938 -18.3422 259° West  Level Estimated
Thu 09:08:00 AM 60.7720 -18.5696 259° West  Level Estimated
Thu 09:09:00 AM 60.7499 -18.7967 259° West  Level Estimated
Thu 09:10:00 AM 60.7273 -19.0236 259° West  Level Estimated
Thu 09:11:00 AM 60.7044 -19.2501 258° West  Level Estimated
Thu 09:12:00 AM 60.6811 -19.4762 258° West  Level Estimated
Thu 09:13:00 AM 60.6574 -19.7021 258° West  Level Estimated
Thu 09:14:00 AM 60.6334 -19.9276 258° West  Level Estimated
Thu 09:15:00 AM 60.6089 -20.1528 258° West  Level Estimated
Thu 09:16:00 AM 60.5841 -20.3776 257° West  Level Estimated
Thu 09:17:00 AM 60.5589 -20.6021 257° West  Level Estimated
Thu 09:18:00 AM 60.5333 -20.8262 257° West  Level Estimated
Thu 09:19:00 AM 60.5074 -21.0500 257° West  Level Estimated
Thu 09:20:00 AM 60.4811 -21.2734 257° West  Level Estimated
Thu 09:21:00 AM 60.4544 -21.4965 256° West  Level Estimated
Thu 09:22:00 AM 60.4273 -21.7191 256° West  Level Estimated
Thu 09:23:00 AM 60.3999 -21.9414 256° West  Level Estimated
Thu 09:24:00 AM 60.3721 -22.1634 256° West  Level Estimated
Thu 09:25:00 AM 60.3439 -22.3849 256° West  Level Estimated
Thu 09:26:00 AM 60.3154 -22.6061 255° West  Level Estimated
Thu 09:27:00 AM 60.2865 -22.8269 255° West  Level Estimated
Thu 09:28:00 AM 60.2572 -23.0472 255° West  Level Estimated
Thu 09:29:00 AM 60.2276 -23.2672 255° West  Level Estimated
Thu 09:30:00 AM 60.1976 -23.4868 255° West  Level Estimated
Thu 09:31:00 AM 60.1672 -23.7060 255° West  Level Estimated
Thu 09:32:00 AM 60.1365 -23.9248 254° West  Level Estimated
Thu 09:33:00 AM 60.1054 -24.1431 254° West  Level Estimated
Thu 09:34:00 AM 60.0740 -24.3611 254° West  Level Estimated
Thu 09:35:00 AM 60.0422 -24.5786 254° West  Level Estimated
Thu 09:36:00 AM 60.0100 -24.7957 254° West  Level Estimated
Thu 09:37:00 AM 59.9775 -25.0124 253° West  Level Estimated
Thu 09:38:00 AM 59.9446 -25.2287 253° West  Level Estimated
Thu 09:39:00 AM 59.9114 -25.4445 253° West  Level Estimated
Thu 09:40:00 AM 59.8778 -25.6599 253° West  Level Estimated
Thu 09:41:00 AM 59.8439 -25.8748 253° West  Level Estimated
Thu 09:42:00 AM 59.8097 -26.0894 252° West  Level Estimated
Thu 09:43:00 AM 59.7750 -26.3034 252° West  Level Estimated
Thu 09:44:00 AM 59.7401 -26.5171 252° West  Level Estimated
Thu 09:45:00 AM 59.7048 -26.7303 252° West  Level Estimated
Thu 09:46:00 AM 59.6691 -26.9430 252° West  Level Estimated
Thu 09:47:00 AM 59.6331 -27.1553 252° West  Level Estimated
Thu 09:48:00 AM 59.5967 -27.3671 251° West  Level Estimated
Thu 09:49:00 AM 59.5601 -27.5784 251° West  Level Estimated
Thu 09:50:00 AM 59.5230 -27.7894 251° West  Level Estimated
Thu 09:51:00 AM 59.4857 -27.9998 251° West  Level Estimated
Thu 09:52:00 AM 59.4480 -28.2097 251° West  Level Estimated
Thu 09:53:00 AM 59.4099 -28.4192 250° West  Level Estimated
Thu 09:54:00 AM 59.3716 -28.6283 250° West  Level Estimated
Thu 09:55:00 AM 59.3329 -28.8368 250° West  Level Estimated
Thu 09:56:00 AM 59.2938 -29.0449 250° West  Level Estimated
Thu 09:57:00 AM 59.2544 -29.2525 250° West  Level Estimated
Thu 09:58:00 AM 59.2147 -29.4596 250° West  Level Estimated
Thu 09:59:00 AM 59.1747 -29.6662 249° West  Level Estimated
Thu 10:00:00 AM 59.1344 -29.8724 249° West  Level Estimated
Thu 10:01:00 AM 59.0937 -30.0780 249° West  Level Estimated
Thu 10:02:00 AM 59.0527 -30.2832 249° West  Level Estimated
Thu 10:03:00 AM 59.0113 -30.4879 249° West  Level Estimated
Thu 10:04:00 AM 58.9697 -30.6920 248° West  Level Estimated
Thu 10:05:00 AM 58.9277 -30.8957 248° West  Level Estimated
Thu 10:06:00 AM 58.8854 -31.0989 248° West  Level Estimated
Thu 10:07:00 AM 58.8428 -31.3016 248° West  Level Estimated
Thu 10:08:00 AM 58.7999 -31.5038 248° West  Level Estimated
Thu 10:09:00 AM 58.7567 -31.7055 248° West  Level Estimated
Thu 10:10:00 AM 58.7131 -31.9067 247° West  Level Estimated
Thu 10:11:00 AM 58.6693 -32.1074 247° West  Level Estimated
Thu 10:12:00 AM 58.6251 -32.3075 247° West  Level Estimated
Thu 10:13:00 AM 58.5806 -32.5072 247° West  Level Estimated
Thu 10:14:00 AM 58.5358 -32.7064 247° West  Level Estimated
Thu 10:15:00 AM 58.4907 -32.9050 247° West  Level Estimated
Thu 10:16:00 AM 58.4453 -33.1032 246° West  Level Estimated
Thu 10:17:00 AM 58.3996 -33.3008 246° West  Level Estimated
Thu 10:18:00 AM 58.3535 -33.4979 246° West  Level Estimated
Thu 10:19:00 AM 58.3072 -33.6945 246° West  Level Estimated
Thu 10:20:00 AM 58.2606 -33.8906 246° West  Level Estimated
Thu 10:21:00 AM 58.2137 -34.0862 246° West  Level Estimated
Thu 10:22:00 AM 58.1665 -34.2812 245° Southwest  Level Estimated
Thu 10:23:00 AM 58.1189 -34.4757 245° Southwest  Level Estimated
Thu 10:24:00 AM 58.0711 -34.6698 245° Southwest  Level Estimated
Thu 10:25:00 AM 58.0230 -34.8633 245° Southwest  Level Estimated
Thu 10:26:00 AM 57.9746 -35.0562 245° Southwest  Level Estimated
Thu 10:27:00 AM 57.9259 -35.2487 245° Southwest  Level Estimated
Thu 10:28:00 AM 57.8769 -35.4406 244° Southwest  Level Estimated
Thu 10:29:00 AM 57.8277 -35.6320 244° Southwest  Level Estimated
Thu 10:30:00 AM 57.7781 -35.8229 244° Southwest  Level Estimated
Thu 10:31:00 AM 57.7283 -36.0132 244° Southwest  Level Estimated
Thu 10:32:00 AM 57.6781 -36.2031 244° Southwest  Level Estimated
Thu 10:33:00 AM 57.6277 -36.3924 244° Southwest  Level Estimated
Thu 10:34:00 AM 57.5770 -36.5811 243° Southwest  Level Estimated
Thu 10:35:00 AM 57.5261 -36.7694 243° Southwest  Level Estimated
Thu 10:36:00 AM 57.4748 -36.9571 243° Southwest  Level Estimated
Thu 10:37:00 AM 57.4233 -37.1443 243° Southwest  Level Estimated
Thu 10:38:00 AM 57.3715 -37.3310 243° Southwest  Level Estimated
Thu 10:39:00 AM 57.3194 -37.5171 243° Southwest  Level Estimated
Thu 10:40:00 AM 57.2670 -37.7027 243° Southwest  Level Estimated
Thu 10:41:00 AM 57.2144 -37.8878 242° Southwest  Level Estimated
Thu 10:42:00 AM 57.1615 -38.0723 242° Southwest  Level Estimated
Thu 10:43:00 AM 57.1083 -38.2564 242° Southwest  Level Estimated
Thu 10:44:00 AM 57.0549 -38.4399 242° Southwest  Level Estimated
Thu 10:45:00 AM 57.0012 -38.6228 242° Southwest  Level Estimated
Thu 10:46:00 AM 56.9472 -38.8053 242° Southwest  Level Estimated
Thu 10:47:00 AM 56.8930 -38.9872 241° Southwest  Level Estimated
Thu 10:48:00 AM 56.8385 -39.1686 241° Southwest  Level Estimated
Thu 10:49:00 AM 56.7837 -39.3494 241° Southwest  Level Estimated
Thu 10:50:00 AM 56.7287 -39.5298 241° Southwest  Level Estimated
Thu 10:51:00 AM 56.6734 -39.7096 241° Southwest  Level Estimated
Thu 10:52:00 AM 56.6179 -39.8888 241° Southwest  Level Estimated
Thu 10:53:00 AM 56.5621 -40.0676 241° Southwest  Level Estimated
Thu 10:54:00 AM 56.5060 -40.2458 240° Southwest  Level Estimated
Thu 10:55:00 AM 56.4497 -40.4235 240° Southwest  Level Estimated
Thu 10:56:00 AM 56.3932 -40.6006 240° Southwest  Level Estimated
Thu 10:57:00 AM 56.3363 -40.7773 240° Southwest  Level Estimated
Thu 10:58:00 AM 56.2793 -40.9534 240° Southwest  Level Estimated
Thu 10:59:00 AM 56.2220 -41.1289 240° Southwest  Level Estimated
Thu 11:00:00 AM 56.1644 -41.3040 239° Southwest  Level Estimated
Thu 11:01:00 AM 56.1066 -41.4785 239° Southwest  Level Estimated
Thu 11:02:00 AM 56.0486 -41.6525 239° Southwest  Level Estimated
Thu 11:03:00 AM 55.9903 -41.8260 239° Southwest  Level Estimated
Thu 11:04:00 AM 55.9317 -41.9990 239° Southwest  Level Estimated
Thu 11:05:00 AM 55.8729 -42.1714 239° Southwest  Level Estimated
Thu 11:06:00 AM 55.8139 -42.3433 239° Southwest  Level Estimated
Thu 11:07:00 AM 55.7547 -42.5147 238° Southwest  Level Estimated
Thu 11:08:00 AM 55.6952 -42.6856 238° Southwest  Level Estimated
Thu 11:09:00 AM 55.6354 -42.8559 238° Southwest  Level Estimated
Thu 11:10:00 AM 55.5755 -43.0257 238° Southwest  Level Estimated
Thu 11:11:00 AM 55.5153 -43.1951 238° Southwest  Level Estimated
Thu 11:12:00 AM 55.4548 -43.3638 238° Southwest  Level Estimated
Thu 11:13:00 AM 55.3941 -43.5321 238° Southwest  Level Estimated
Thu 11:14:00 AM 55.3332 -43.6999 238° Southwest  Level Estimated
Thu 11:15:00 AM 55.2721 -43.8671 237° Southwest  Level Estimated
Thu 11:16:00 AM 55.2108 -44.0339 237° Southwest  Level Estimated
Thu 11:17:00 AM 55.1492 -44.2001 237° Southwest  Level Estimated
Thu 11:18:00 AM 55.0834 -44.3762 237° Southwest  Level Estimated
Thu 11:19:00 AM 55.0174 -44.5519 237° Southwest  Level Estimated
Thu 11:20:00 AM 54.9512 -44.7269 237° Southwest  Level Estimated
Thu 11:21:00 AM 54.8847 -44.9014 237° Southwest  Level Estimated
Thu 11:22:00 AM 54.8179 -45.0753 236° Southwest  Level Estimated
Thu 11:23:00 AM 54.7509 -45.2486 236° Southwest  Level Estimated
Thu 11:24:00 AM 54.6837 -45.4213 236° Southwest  Level Estimated
Thu 11:25:00 AM 54.6162 -45.5935 236° Southwest  Level Estimated
Thu 11:26:00 AM 54.5485 -45.7651 236° Southwest  Level Estimated
Thu 11:27:00 AM 54.4805 -45.9362 236° Southwest  Level Estimated
Thu 11:28:00 AM 54.4123 -46.1067 236° Southwest  Level Estimated
Thu 11:29:00 AM 54.3438 -46.2766 235° Southwest  Level Estimated
Thu 11:30:00 AM 54.2752 -46.4459 235° Southwest  Level Estimated
Thu 11:31:00 AM 54.2062 -46.6147 235° Southwest  Level Estimated
Thu 11:32:00 AM 54.1371 -46.7829 235° Southwest  Level Estimated
Thu 11:33:00 AM 54.0677 -46.9505 235° Southwest  Level Estimated
Thu 11:34:00 AM 53.9981 -47.1176 235° Southwest  Level Estimated
Thu 11:35:00 AM 53.9282 -47.2841 235° Southwest  Level Estimated
Thu 11:36:00 AM 53.8581 -47.4501 234° Southwest  Level Estimated
Thu 11:37:00 AM 53.7878 -47.6155 234° Southwest  Level Estimated
Thu 11:38:00 AM 53.7172 -47.7803 234° Southwest  Level Estimated
Thu 11:39:00 AM 53.6465 -47.9446 234° Southwest  Level Estimated
Thu 11:40:00 AM 53.5755 -48.1084 234° Southwest  Level Estimated
Thu 11:41:00 AM 53.5043 -48.2716 234° Southwest  Level Estimated
Thu 11:42:00 AM 53.4328 -48.4343 234° Southwest  Level Estimated
Thu 11:43:00 AM 53.3612 -48.5964 234° Southwest  Level Estimated
Thu 11:44:00 AM 53.2893 -48.7579 233° Southwest  Level Estimated
Thu 11:45:00 AM 53.2172 -48.9189 233° Southwest  Level Estimated
Thu 11:46:00 AM 53.1449 -49.0794 233° Southwest  Level Estimated
Thu 11:47:00 AM 53.0724 -49.2394 233° Southwest  Level Estimated
Thu 11:48:00 AM 52.9996 -49.3988 233° Southwest  Level Estimated
Thu 11:49:00 AM 52.9267 -49.5576 233° Southwest  Level Estimated
Thu 11:50:00 AM 52.8535 -49.7160 233° Southwest  Level Estimated
Thu 11:51:00 AM 52.7801 -49.8737 232° Southwest  Level Estimated
Thu 11:52:00 AM 52.7066 -50.0310 232° Southwest  Level Estimated
Thu 11:52:26 AM 56.5833 -61.6167 232° Southwest 380 437 34,000  Level Moncton Center
Thu 11:53:00 AM 52.6328 -50.1877 232° Southwest  Level Estimated
Thu 11:53:26 AM 56.4667 -61.7167 205° Southwest 440 506 34,000  Level Moncton Center
Thu 11:54:00 AM 52.5588 -50.3439 232° Southwest  Level Estimated
Thu 11:54:26 AM 56.3667 -61.8333 213° Southwest 440 506 34,000  Level Moncton Center
Thu 11:55:00 AM 52.4846 -50.4996 232° Southwest  Level Estimated
Thu 11:55:22 AM 56.2667 -61.9167 205° Southwest 440 506 34,000  Level Gander Center
Thu 11:56:00 AM 52.4102 -50.6548 232° Southwest  Level Estimated
Thu 11:56:22 AM 56.1667 -62.0333 213° Southwest 440 506 34,000  Level Gander Center
Thu 11:57:00 AM 52.3356 -50.8094 232° Southwest  Level Estimated
Thu 11:57:22 AM 56.0500 -62.1167 202° Southwest 430 495 34,000  Level Gander Center
Thu 11:58:22 AM 55.9500 -62.2000 205° Southwest 430 495 34,000  Level Gander Center
Thu 11:59:22 AM 55.8333 -62.3167 209° Southwest 430 495 34,000  Level Gander Center
Thu 12:00:22 PM 55.7333 -62.4167 209° Southwest 430 495 34,000  Level Gander Center
Thu 12:01:22 PM 55.6167 -62.5167 206° Southwest 430 495 34,000  Level Gander Center
Thu 12:02:22 PM 55.5167 -62.6167 210° Southwest 430 495 34,000  Level Gander Center
Thu 12:03:22 PM 55.4167 -62.7000 205° Southwest 440 506 34,000  Level Gander Center
Thu 12:04:22 PM 55.2833 -62.8000 203° Southwest 440 506 34,000  Level Gander Center
Thu 12:05:22 PM 55.1833 -62.8833 205° Southwest 440 506 34,000  Level Gander Center
Thu 12:06:22 PM 55.0667 -63.0000 210° Southwest 450 518 34,000  Level Gander Center
Thu 12:07:22 PM 54.9667 -63.0833 206° Southwest 440 506 34,000  Level Gander Center
Thu 12:08:22 PM 54.8500 -63.2000 210° Southwest 450 518 34,000  Level Gander Center
Thu 12:09:22 PM 54.7333 -63.2833 202° Southwest 450 518 34,000  Level Gander Center
Thu 12:10:22 PM 54.6333 -63.3667 206° Southwest 450 518 34,000  Level Gander Center
Thu 12:11:22 PM 54.5167 -63.4667 206° Southwest 440 506 34,000  Level Gander Center
Thu 12:12:22 PM 54.4167 -63.5500 206° Southwest 440 506 34,000  Level Gander Center
Thu 12:13:22 PM 54.3000 -63.6667 210° Southwest 450 518 34,000  Level Gander Center
Thu 12:14:47 PM 54.1333 -63.8000 205° Southwest 450 518 34,000  Level Gander Center
Thu 12:15:47 PM 54.0167 -63.8667 199° South 450 518 34,000  Level Gander Center
Thu 12:16:47 PM 53.9000 -63.9833 211° Southwest 460 529 34,000  Level Gander Center
Thu 12:17:47 PM 53.7833 -64.0500 199° South 460 529 34,000  Level Gander Center
Thu 12:18:47 PM 53.6833 -64.1667 215° Southwest 450 518 34,000  Level Gander Center
Thu 12:19:47 PM 53.5667 -64.2333 199° South 460 529 34,000  Level Gander Center
Thu 12:20:47 PM 53.4500 -64.3500 211° Southwest 450 518 34,000  Level Gander Center
Thu 12:21:47 PM 53.3333 -64.4500 207° Southwest 450 518 34,000  Level Gander Center
Thu 12:22:47 PM 53.2333 -64.5500 211° Southwest 450 518 34,000  Level Gander Center
Thu 12:23:47 PM 53.1167 -64.6500 207° Southwest 450 518 34,000  Level Gander Center
Thu 12:24:47 PM 53.0167 -64.7500 211° Southwest 460 529 34,000  Level Gander Center
Thu 12:25:47 PM 52.8833 -64.8500 204° Southwest 450 518 34,000  Level Gander Center
Thu 12:26:47 PM 52.7833 -64.9667 215° Southwest 450 518 34,000  Level Gander Center
Thu 12:27:47 PM 52.6667 -65.0333 199° South 450 518 34,000  Level Gander Center
Thu 12:28:47 PM 52.5667 -65.1333 211° Southwest 450 518 34,000  Level Gander Center
Thu 12:29:47 PM 52.4500 -65.2333 208° Southwest 450 518 34,000  Level Gander Center
Thu 12:30:47 PM 52.3333 -65.3333 208° Southwest 450 518 34,000  Level Gander Center
Thu 12:31:47 PM 52.2167 -65.4333 208° Southwest 450 518 34,000  Level Gander Center
Thu 12:32:47 PM 52.1167 -65.5000 202° Southwest 450 518 34,000  Level Gander Center
Thu 12:33:26 PM 52.0500 -65.5667 212° Southwest 450 518 34,000  Level Moncton Center
Thu 12:34:26 PM 51.9333 -65.6667 208° Southwest 450 518 34,000  Level Moncton Center
Thu 12:35:26 PM 51.8167 -65.7167 195° South 450 518 34,000  Level Moncton Center
Thu 12:36:26 PM 51.6833 -65.7667 193° South 470 541 34,000  Level Moncton Center
Thu 12:37:26 PM 51.5500 -65.8167 193° South 470 541 34,000  Level Moncton Center
Thu 12:38:26 PM 51.4333 -65.8667 195° South 470 541 34,000  Level Moncton Center
Thu 12:39:26 PM 51.3000 -65.9167 193° South 470 541 34,000  Level Moncton Center
Thu 12:40:26 PM 51.1667 -65.9500 189° South 470 541 34,000  Level Moncton Center
Thu 12:41:26 PM 51.0333 -66.0000 193° South 480 552 34,000  Level Moncton Center
Thu 12:42:26 PM 50.9167 -66.0500 195° South 480 552 34,000  Level Moncton Center
Thu 12:43:26 PM 50.7833 -66.0833 189° South 470 541 34,000  Level Moncton Center
Thu 12:44:26 PM 50.6500 -66.1333 193° South 480 552 34,000  Level Moncton Center
Thu 12:45:26 PM 50.5167 -66.1833 193° South 480 552 34,000  Level Moncton Center
Thu 12:46:26 PM 50.4000 -66.2167 190° South 480 552 34,000  Level Moncton Center
Thu 12:47:26 PM 50.2667 -66.2500 189° South 480 552 34,000  Level Moncton Center
Thu 12:48:26 PM 50.1333 -66.3333 202° Southwest 470 541 34,000  Level Moncton Center
Thu 12:49:26 PM 50.0167 -66.4000 200° South 460 529 34,000  Level Moncton Center
Thu 12:50:26 PM 49.8833 -66.4500 194° South 470 541 34,000  Level Moncton Center
Thu 12:51:26 PM 49.7667 -66.5167 200° South 470 541 34,000  Level Moncton Center
Thu 12:52:26 PM 49.6500 -66.6000 205° Southwest 470 541 34,000  Level Moncton Center
Thu 12:53:26 PM 49.5167 -66.6667 198° South 470 541 34,000  Level Moncton Center
Thu 12:54:26 PM 49.4000 -66.7333 200° South 470 541 34,000  Level Moncton Center
Thu 12:55:26 PM 49.2833 -66.7833 196° South 470 541 34,000  Level Moncton Center
Thu 12:56:26 PM 49.1500 -66.8500 198° South 470 541 34,000  Level Moncton Center
Thu 12:57:26 PM 49.0333 -66.9333 205° Southwest 470 541 34,000  Level Moncton Center
Thu 12:58:26 PM 48.9000 -67.0000 198° South 470 541 34,000  Level Moncton Center
Thu 12:59:26 PM 48.7667 -67.0667 198° South 460 529 34,000  Level Moncton Center
Thu 01:00:26 PM 48.6500 -67.1333 201° Southwest 460 529 34,000  Level Moncton Center
Thu 01:01:26 PM 48.5333 -67.2000 201° Southwest 460 529 34,000  Level Moncton Center
Thu 01:02:26 PM 48.4167 -67.2500 196° South 460 529 34,000  Level Moncton Center
Thu 01:03:26 PM 48.2833 -67.3167 198° South 470 541 34,000  Level Moncton Center
Thu 01:04:26 PM 48.1667 -67.3833 201° Southwest 470 541 34,000  Level Moncton Center
Thu 01:05:26 PM 48.0500 -67.4500 201° Southwest 470 541 34,000  Level Moncton Center
Thu 01:06:26 PM 47.9333 -67.5167 201° Southwest 470 541 34,000  Level Moncton Center
Thu 01:07:26 PM 47.7833 -67.5833 197° South 470 541 34,000  Level Moncton Center
Thu 01:08:26 PM 47.6667 -67.6333 196° South 470 541 34,000  Level Moncton Center
Thu 01:09:26 PM 47.5500 -67.7000 201° Southwest 470 541 34,000  Level Moncton Center
Thu 01:10:26 PM 47.4167 -67.7667 199° South 460 529 34,000  Level Moncton Center
Thu 01:11:26 PM 47.3167 -67.8333 204° Southwest 460 529 34,000  Level Moncton Center
Thu 01:17:41 PM 46.5782 -68.1764 204° Southwest 461 531 34,000  Level FlightAware
Thu 01:18:24 PM 46.4849 -68.2149 196° South 456 525 34,000  Level FlightAware
Thu 01:19:03 PM 46.3916 -68.2535 196° South 454 522 34,000  Level FlightAware
Thu 01:19:41 PM 46.3199 -68.2830 196° South 455 524 34,000  Level FlightAware
Thu 01:20:30 PM 46.2081 -68.3290 196° South 460 529 34,000  Level FlightAware
Thu 01:21:18 PM 46.1105 -68.3688 196° South 458 527 34,000  Level FlightAware
Thu 01:22:07 PM 46.0108 -68.4093 196° South 452 520 34,000  Level FlightAware
Thu 01:22:38 PM 45.9497 -68.4340 196° South 450 518 34,000  Level FlightAware
Thu 01:23:16 PM 45.8735 -68.4649 196° South 449 517 34,000  Level FlightAware (YSBK / BWU)
Thu 01:23:54 PM 45.8010 -68.4942 196° South 451 519 34,000  Level FlightAware (YSBK / BWU)
Thu 01:24:28 PM 45.7443 -68.5170 196° South 448 516 34,000  Level FlightAware (YSBK / BWU)
Thu 01:25:04 PM 45.6578 -68.5517 196° South 446 513 34,000  Level FlightAware
Thu 01:25:38 PM 45.5919 -68.5781 196° South 444 511 34,000  Level FlightAware (YSBK / BWU)
Thu 01:26:26 PM 45.4980 -68.6157 196° South 445 512 34,000  Level FlightAware
Thu 01:27:07 PM 45.4423 -68.6379 196° South 446 513 34,000  Level FlightAware (YSBK / BWU)
Thu 01:27:40 PM 45.3499 -68.6745 196° South 442 509 34,000  Level FlightAware
Thu 01:28:17 PM 45.2779 -68.7030 196° South 440 506 34,000  Level FlightAware
Thu 01:28:56 PM 45.2008 -68.7335 196° South 442 509 34,000  Level FlightAware
Thu 01:29:32 PM 45.1292 -68.7618 196° South 444 511 34,000  Level FlightAware
Thu 01:30:03 PM 45.0668 -68.7862 195° South 443 510 34,000  Level FlightAware
Thu 01:30:37 PM 45.0049 -68.8104 195° South 444 511 34,000  Level FlightAware
Thu 01:31:07 PM 44.9428 -68.8347 195° South 445 512 34,000  Level FlightAware
Thu 01:31:48 PM 44.8739 -68.8619 196° South 444 511 34,000  Level FlightAware (YSBK / BWU)
Thu 01:32:10 PM 44.8196 -68.8890 199° South 435 501 34,000  Level FlightAware
Thu 01:32:48 PM 44.7542 -68.9328 205° Southwest 427 491 34,000  Level FlightAware (YSBK / BWU)
Thu 01:33:23 PM 44.6940 -68.9748 206° Southwest 427 491 34,000  Level FlightAware
Thu 01:33:55 PM 44.6314 -69.0178 206° Southwest 430 495 34,000  Level FlightAware (YSBK / BWU)
Thu 01:34:25 PM 44.5771 -69.0548 206° Southwest 433 498 34,000  Level FlightAware (YSBK / BWU)
Thu 01:34:55 PM 44.5253 -69.0899 206° Southwest 432 497 34,000  Level FlightAware
Thu 01:35:29 PM 44.4671 -69.1292 206° Southwest 431 496 34,000  Level FlightAware (YSBK / BWU)
Thu 01:36:01 PM 44.4045 -69.1714 206° Southwest 432 497 34,000  Level FlightAware
Thu 01:36:39 PM 44.3396 -69.2151 206° Southwest 433 498 34,000  Level FlightAware
Thu 01:37:10 PM 44.2814 -69.2542 206° Southwest 434 499 34,000  Level FlightAware (YSBK / BWU)
Thu 01:37:43 PM 44.2240 -69.2927 206° Southwest 433 498 34,000  Level FlightAware (YSBK / BWU)
Thu 01:38:13 PM 44.1672 -69.3305 206° Southwest 430 495 34,000  Level FlightAware
Thu 01:38:59 PM 44.0854 -69.3850 206° Southwest 430 495 34,000  Level FlightAware (YSBK / BWU)
Thu 01:39:33 PM 44.0398 -69.4153 206° Southwest 431 496 34,000  Level FlightAware (YSBK / BWU)
Thu 01:40:18 PM 43.9426 -69.4801 206° Southwest 431 496 34,000  Level FlightAware
Thu 01:40:58 PM 43.8678 -69.5297 206° Southwest 431 496 34,000  Level FlightAware
Thu 01:41:33 PM 43.8152 -69.5642 205° Southwest 429 494 34,000  Level FlightAware
Thu 01:42:18 PM 43.7770 -69.5893 205° Southwest 427 491 34,000  Level FlightAware
Thu 01:42:50 PM 43.7763 -69.5898 207° Southwest 427 491 34,000  Level FlightAware (EPKK / KRK)
Thu 01:43:47 PM 43.5697 -69.7253 205° Southwest 429 494 34,000  Level FlightAware (EPKK / KRK)
Thu 01:44:24 PM 43.5036 -69.7684 205° Southwest 428 493 34,000  Level FlightAware
Thu 01:44:47 PM 43.4608 -69.7955 205° Southwest 421 484 34,000  Level FlightAware
Thu 01:45:26 PM 43.3811 -69.8303 198° South 430 495 34,000  Level FlightAware
Thu 01:45:47 PM 43.3394 -69.8424 192° South 450 518 34,000  Level FlightAware
Thu 01:46:18 PM 43.3089 -69.8486 188° South 457 526 34,000  Level FlightAware (EPKK / KRK)
Thu 01:47:02 PM 43.1894 -69.8681 187° South 455 524 34,000  Level FlightAware (EPKK / KRK)
Thu 01:47:36 PM 43.1163 -69.8796 187° South 451 519 34,000  Level FlightAware
Thu 01:48:18 PM 43.0268 -69.8927 186° South 454 522 34,000  Level FlightAware
Thu 01:49:09 PM 42.9212 -69.9081 186° South 452 520 34,000  Level FlightAware
Thu 01:49:43 PM 42.8492 -69.9184 186° South 456 525 34,000  Level FlightAware (EPKK / KRK)
Thu 01:50:17 PM 42.7773 -69.9289 186° South 456 525 34,000  Level FlightAware
Thu 01:51:01 PM 42.6854 -69.9421 186° South 455 524 34,000  Level FlightAware
Thu 01:51:38 PM 42.6084 -69.9532 186° South 456 525 34,000  Level FlightAware (EPKK / KRK)
Thu 01:52:10 PM 42.5412 -69.9629 186° South 455 524 34,000  Level FlightAware (EPKK / KRK)
Thu 01:52:45 PM 42.4680 -69.9733 186° South 452 520 34,000  Level FlightAware
Thu 01:53:21 PM 42.3946 -69.9839 186° South 450 518 34,000  Level FlightAware (EPKK / KRK)
Thu 01:53:56 PM 42.3235 -69.9940 186° South 450 518 34,000  Level FlightAware (KOWD)
Thu 01:54:42 PM 42.2292 -70.0074 186° South 451 519 34,000  Level FlightAware (EPKK / KRK)
Thu 01:55:13 PM 42.1623 -70.0216 189° South 439 505 34,000  Level FlightAware (EPKK / KRK)
Thu 01:55:46 PM 42.0991 -70.0463 196° South 425 489 34,000  Level FlightAware
Thu 01:56:23 PM 42.0377 -70.0815 203° Southwest 412 474 34,000  Level FlightAware (EPKK / KRK)
Thu 01:56:56 PM 42.0071 -70.1037 208° Southwest 403 464 34,000  Level FlightAware (KOWD)
Thu 01:57:16 PM 41.9498 -70.1553 214° Southwest 399 459 34,000  Level FlightAware
Thu 01:57:28 PM 41.9345 -70.1715 218° Southwest 397 457 34,000  Level FlightAware (EPKK / KRK)
Thu 01:57:58 PM 41.8992 -70.2140 222° Southwest 392 451 34,000  Level FlightAware (EPKK / KRK)
Thu 01:58:11 PM 41.8774 -70.2441 226° Southwest 384 442 34,000  Level FlightAware
Thu 01:58:37 PM 41.8453 -70.2913 228° Southwest 389 448 34,000  Level FlightAware (EPKK / KRK)
Thu 01:59:10 PM 41.8041 -70.3504 227° Southwest 385 443 34,000  Level FlightAware
Thu 01:59:19 PM 41.8000 -70.3564 227° Southwest 391 450 34,000  Level FlightAware (KOWD)
Thu 01:59:56 PM 41.7486 -70.4310 227° Southwest 391 450 34,000  Level FlightAware (KOWD)
Thu 02:00:31 PM 41.7058 -70.4931 227° Southwest 384 442 34,000  Level FlightAware
Thu 02:01:04 PM 41.6654 -70.5518 227° Southwest 389 448 34,000  Level FlightAware (KOWD)
Thu 02:01:36 PM 41.6272 -70.6071 227° Southwest 389 448 34,000  Level FlightAware (KOWD)
Thu 02:02:17 PM 41.5814 -70.6732 227° Southwest 389 448 34,000  Level FlightAware (KOWD)
Thu 02:02:53 PM 41.5505 -70.7178 227° Southwest 388 447 34,000  Level FlightAware (KOWD)
Thu 02:03:04 PM 41.5505 -70.7178 227° Southwest 387 445 34,000  Level FlightAware (KOWD)
Thu 02:03:41 PM 41.4740 -70.8279 227° Southwest 382 440 34,000  Level FlightAware
Thu 02:04:12 PM 41.4386 -70.8786 227° Southwest 389 448 34,000  Level FlightAware (KOWD)
Thu 02:05:02 PM 41.3750 -70.9696 227° Southwest 382 440 34,000  Level FlightAware
Thu 02:05:42 PM 41.3262 -71.0393 227° Southwest 382 440 34,000  Level FlightAware
Thu 02:06:13 PM 41.2902 -71.0922 228° Southwest 384 442 34,000  Level FlightAware
Thu 02:07:02 PM 41.2435 -71.1871 237° Southwest 372 428 34,000  Level FlightAware
Thu 02:07:45 PM 41.2154 -71.2786 248° West 372 428 34,000  Level FlightAware
Thu 02:08:15 PM 41.1974 -71.3433 250° West 372 428 34,000  Level FlightAware
Thu 02:09:09 PM 41.1652 -71.4576 250° West 371 427 34,000  Level FlightAware
Thu 02:11:10 PM 41.1042 -71.6734 250° West 368 423 34,000  Level FlightAware (KSNC)
Thu 02:11:58 PM 41.0640 -71.8147 249° West 368 423 34,000  Level FlightAware (KSNC)
Thu 02:12:55 PM 41.0397 -71.8992 249° West 372 428 34,000  Level FlightAware (KSNC)
Thu 02:13:19 PM 41.0068 -71.9793 241° Southwest 387 445 34,000  Level FlightAware (KSNC)
Thu 02:13:50 PM 40.9676 -72.0344 227° Southwest 386 444 34,000  Level FlightAware (KSNC)
Thu 02:14:24 PM 40.9285 -72.0899 227° Southwest 385 443 34,000  Level FlightAware (KSNC)
Thu 02:14:58 PM 40.8858 -72.1505 227° Southwest 381 438 34,000  Level FlightAware (KSNC)
Thu 02:15:51 PM 40.8331 -72.2249 227° Southwest 381 438 34,000  Level FlightAware (KSNC)
Thu 02:16:48 PM 40.7954 -72.2785 227° Southwest 379 436 34,000  Level FlightAware (KSNC)
Thu 02:17:25 PM 40.7149 -72.3930 227° Southwest 377 434 34,000  Level FlightAware (KSNC)
Thu 02:18:01 PM 40.6669 -72.4609 227° Southwest 379 436 34,000  Level FlightAware (KSNC)
Thu 02:18:42 PM 40.6188 -72.5288 227° Southwest 377 434 34,000  Level FlightAware (KSNC)
Thu 02:19:13 PM 40.5811 -72.5820 227° Southwest 377 434 34,000  Level FlightAware (KSNC)
Thu 02:19:53 PM 40.5346 -72.6475 227° Southwest 374 430 34,000  Level FlightAware (KSNC)
Thu 02:20:54 PM 40.4640 -72.7465 227° Southwest 374 430 34,000  Level FlightAware (KSNC)
Thu 02:21:24 PM 40.4266 -72.7990 227° Southwest 375 432 34,000  Level FlightAware (KSNC)
Thu 02:22:04 PM 40.3813 -72.8622 227° Southwest 376 433 34,000  Level FlightAware (KSNC)
Thu 02:22:56 PM 40.3173 -72.9513 227° Southwest 376 433 34,000  Level FlightAware (KSNC)
Thu 02:23:36 PM 40.2699 -73.0172 227° Southwest 375 432 34,000  Level FlightAware (KSNC)
Thu 02:24:07 PM 40.2335 -73.0678 227° Southwest 375 432 34,000  Level FlightAware (KSNC)
Thu 02:25:06 PM 40.1632 -73.1651 227° Southwest 375 432 34,000  Level FlightAware (KSNC)
Thu 02:25:38 PM 40.1249 -73.2179 227° Southwest 374 430 34,000  Level FlightAware (KSNC)
Thu 02:26:39 PM 40.0470 -73.3128 223° Southwest 382 440 34,000  Level FlightAware (KSNC)
Thu 02:27:19 PM 39.9971 -73.3693 221° Southwest 379 436 34,000  Level FlightAware (KSNC)
Thu 02:27:50 PM 39.9542 -73.4175 221° Southwest 379 436 34,000  Level FlightAware (KSNC)
Thu 02:29:18 PM 39.8381 -73.5472 221° Southwest 372 428 34,000  Level FlightAware (KSNC)
Thu 02:30:06 PM 39.7800 -73.6117 221° Southwest 373 429 34,000  Level FlightAware (KSNC)
Thu 02:32:22 PM 39.5972 -73.8140 220° Southwest 372 428 34,000  Level FlightAware
Thu 02:35:18 PM 39.4193 -74.0096 220° Southwest 371 427 34,000  Level FlightAware
Thu 02:36:53 PM 39.2747 -74.1674 220° Southwest 373 429 34,000  Level FlightAware
Thu 02:37:38 PM 39.1758 -74.2568 215° Southwest 384 442 34,000  Level FlightAware
Thu 02:38:24 PM 39.1045 -74.3109 211° Southwest 385 443 34,000  Level FlightAware
Thu 02:39:10 PM 39.0349 -74.3646 211° Southwest 384 442 34,000  Level FlightAware
Thu 02:41:20 PM 38.8938 -74.5782 230° Southwest 377 434 34,000  Level FlightAware
Thu 02:42:43 PM 38.7832 -74.6977 220° Southwest 379 436 34,000  Level FlightAware
Thu 02:43:36 PM 38.7106 -74.7753 220° Southwest 378 435 34,000  Level FlightAware
Thu 02:44:39 PM 38.6265 -74.8647 220° Southwest 377 434 34,000  Level FlightAware
Thu 02:45:32 PM 38.5563 -74.9392 220° Southwest 379 436 34,000  Level FlightAware
Thu 02:46:41 PM 38.5666 -74.9282 40° Northeast 379 436 34,000  Level FlightAware
Thu 02:47:38 PM 38.3931 -75.1175 40° Northeast 377 434 34,000  Level Washington Center
Thu 02:48:39 PM 38.3100 -75.2028 219° Southwest 377 434 34,000  Level Washington Center
Thu 02:49:37 PM 38.2311 -75.2878 220° Southwest 383 441 34,000  Level Washington Center
Thu 02:50:37 PM 38.1353 -75.3567 209° Southwest 388 447 34,000  Level Washington Center
Thu 02:51:37 PM 38.0417 -75.4256 210° Southwest 388 447 34,000  Level Washington Center
Thu 02:52:38 PM 37.9478 -75.4864 207° Southwest 388 447 34,000  Level Washington Center
Thu 02:53:39 PM 37.8542 -75.5575 211° Southwest 393 452 34,000  Level Washington Center
Thu 02:54:39 PM 37.7603 -75.6181 207° Southwest 393 452 34,000  Level Washington Center
Thu 02:55:37 PM 37.6683 -75.6836 209° Southwest 393 452 34,000  Level Washington Center
Thu 02:56:38 PM 37.5786 -75.7492 210° Southwest 388 447 34,000  Level Washington Center
Thu 02:57:39 PM 37.4847 -75.8117 208° Southwest 388 447 34,000  Level Washington Center
Thu 02:58:39 PM 37.3928 -75.8742 208° Southwest 383 441 34,000  Level Washington Center
Thu 02:59:37 PM 37.2967 -75.9417 209° Southwest 383 441 34,000  Level Washington Center
Thu 03:00:37 PM 37.2047 -76.0039 208° Southwest 383 441 34,000  Level Washington Center
Thu 03:01:38 PM 37.1106 -76.0686 209° Southwest 383 441 34,000  Level Washington Center
Thu 03:02:38 PM 37.0186 -76.1331 209° Southwest 383 441 34,000  Level Washington Center
Thu 03:03:39 PM 36.9222 -76.1919 206° Southwest 383 441 34,000  Level Washington Center
Thu 03:04:39 PM 36.8281 -76.2561 209° Southwest 383 441 34,000  Level Washington Center
Thu 03:05:37 PM 36.7358 -76.3175 208° Southwest 383 441 34,000  Level Washington Center
Thu 03:06:38 PM 36.6542 -76.3764 210° Southwest 383 441 34,000  Level Washington Center
Thu 03:07:39 PM 36.5600 -76.4375 208° Southwest 383 441 34,000  Level Washington Center
Thu 03:08:37 PM 36.4675 -76.5011 209° Southwest 383 441 34,000  Level Washington Center
Thu 03:09:38 PM 36.3753 -76.5619 208° Southwest 383 441 34,000  Level Washington Center
Thu 03:15:24 PM 35.8208 -76.9282 208° Southwest 386 444 34,000  Level FlightAware
Thu 03:16:12 PM 35.7446 -76.9782 208° Southwest 386 444 34,000  Level FlightAware
Thu 03:16:54 PM 35.6789 -77.0212 208° Southwest 385 443 34,000  Level FlightAware
Thu 03:17:34 PM 35.6151 -77.0630 208° Southwest 386 444 34,000  Level FlightAware
Thu 03:18:12 PM 35.5542 -77.1027 208° Southwest 387 445 34,000  Level FlightAware
Thu 03:18:54 PM 35.4893 -77.1451 208° Southwest 389 448 34,000  Level FlightAware
Thu 03:19:34 PM 35.4240 -77.1875 208° Southwest 391 450 34,000  Level FlightAware
Thu 03:20:04 PM 35.3777 -77.2176 208° Southwest 391 450 34,000  Level FlightAware
Thu 03:20:44 PM 35.3142 -77.2588 208° Southwest 391 450 34,000  Level FlightAware
Thu 03:21:24 PM 35.2495 -77.3008 208° Southwest 392 451 34,000  Level FlightAware
Thu 03:22:00 PM 35.1927 -77.3375 208° Southwest 392 451 34,000  Level FlightAware
Thu 03:22:44 PM 35.1204 -77.3841 208° Southwest 393 452 34,000  Level FlightAware
Thu 03:23:22 PM 35.0590 -77.4237 208° Southwest 394 453 34,000  Level FlightAware
Thu 03:24:04 PM 34.9941 -77.4654 208° Southwest 393 452 34,000  Level FlightAware
Thu 03:24:34 PM 34.9450 -77.4969 208° Southwest 393 452 34,000  Level FlightAware
Thu 03:25:12 PM 34.8824 -77.5370 208° Southwest 391 450 34,000  Level FlightAware
Thu 03:26:04 PM 34.8007 -77.5893 208° Southwest 391 450 34,000  Level FlightAware
Thu 03:26:44 PM 34.7375 -77.6296 208° Southwest 391 450 34,000  Level FlightAware
Thu 03:27:34 PM 34.6548 -77.6823 208° Southwest 391 450 34,000  Level FlightAware
Thu 03:28:14 PM 34.5905 -77.7232 208° Southwest 391 450 34,000  Level FlightAware
Thu 03:28:44 PM 34.5433 -77.7532 208° Southwest 392 451 34,000  Level FlightAware
Thu 03:29:22 PM 34.4838 -77.7908 208° Southwest 390 449 34,000  Level FlightAware
Thu 03:29:54 PM 34.4302 -77.8247 208° Southwest 390 449 34,000  Level FlightAware
Thu 03:30:34 PM 34.3659 -77.8631 206° Southwest 398 458 34,000  Level FlightAware
Thu 03:31:14 PM 34.2953 -77.8899 197° South 405 466 34,000  Level FlightAware
Thu 03:32:14 PM 34.1851 -77.9226 194° South 405 466 34,000  Level FlightAware
Thu 03:32:44 PM 34.1326 -77.9380 194° South 405 466 34,000  Level FlightAware
Thu 03:33:24 PM 34.0618 -77.9585 193° South 405 466 34,000  Level FlightAware
Thu 03:34:14 PM 33.9681 -77.9856 193° South 406 467 34,000  Level FlightAware
Thu 03:34:48 PM 33.9051 -78.0037 193° South 406 467 34,000  Level FlightAware
Thu 03:35:34 PM 33.8215 -78.0277 193° South 406 467 34,000  Level FlightAware
Thu 03:36:24 PM 33.7293 -78.0542 193° South 405 466 34,000  Level FlightAware
Thu 03:37:09 PM 33.6486 -78.0775 193° South 415 478 34,000  Level Jacksonville Center
Thu 03:38:09 PM 33.5372 -78.1111 194° South 415 478 34,000  Level Jacksonville Center
Thu 03:39:09 PM 33.4256 -78.1419 193° South 415 478 34,000  Level Jacksonville Center
Thu 03:40:09 PM 33.3142 -78.1728 193° South 415 478 34,000  Level Jacksonville Center
Thu 03:41:09 PM 33.2025 -78.2033 193° South 415 478 34,000  Level Jacksonville Center
Thu 03:42:09 PM 33.0911 -78.2367 194° South 415 478 34,000  Level Jacksonville Center
Thu 03:43:09 PM 32.9794 -78.2672 193° South 410 472 34,000  Level Jacksonville Center
Thu 03:44:09 PM 32.8681 -78.2975 193° South 410 472 34,000  Level Jacksonville Center
Thu 03:45:09 PM 32.7583 -78.3278 193° South 410 472 34,000  Level Jacksonville Center
Thu 03:46:09 PM 32.6489 -78.3606 194° South 410 472 34,000  Level Jacksonville Center
Thu 03:47:09 PM 32.5394 -78.3906 193° South 410 472 34,000  Level Jacksonville Center
Thu 03:48:09 PM 32.4278 -78.4208 193° South 410 472 34,000  Level Jacksonville Center
Thu 03:49:09 PM 32.3164 -78.4558 195° South 410 472 34,000  Level Jacksonville Center
Thu 03:50:09 PM 32.2047 -78.4858 193° South 415 478 34,000  Level Jacksonville Center
Thu 03:51:09 PM 32.0972 -78.5153 193° South 410 472 34,000  Level Jacksonville Center
Thu 03:52:09 PM 31.9856 -78.5453 193° South 410 472 34,000  Level Jacksonville Center
Thu 03:53:09 PM 31.8800 -78.5747 193° South 410 472 34,000  Level Jacksonville Center
Thu 03:54:09 PM 31.7725 -78.6064 194° South 416 479 34,000  Level Jacksonville Center
Thu 03:55:09 PM 31.6589 -78.6386 194° South 410 472 34,000  Level Jacksonville Center
Thu 03:56:09 PM 31.5511 -78.6631 191° South 410 472 34,000  Level Jacksonville Center
Thu 03:57:09 PM 31.4436 -78.6947 194° South 410 472 34,000  Level Jacksonville Center
Thu 03:58:09 PM 31.3358 -78.7214 192° South 410 472 34,000  Level Jacksonville Center
Thu 03:59:09 PM 31.2244 -78.7556 195° South 410 472 34,000  Level Jacksonville Center
Thu 04:00:09 PM 31.1125 -78.7872 194° South 410 472 34,000  Level Jacksonville Center
Thu 04:01:09 PM 30.9986 -78.8114 190° South 410 472 34,000  Level Jacksonville Center
Thu 04:02:09 PM 30.8911 -78.8428 194° South 410 472 34,000  Level Jacksonville Center
Thu 04:04:11 PM 30.6722 -78.9025 193° South 403 464 34,000  Level Miami Center
Thu 04:05:11 PM 30.5611 -78.9339 194° South 411 473 34,000  Level Miami Center
Thu 04:06:11 PM 30.4544 -78.9583 191° South 411 473 34,000  Level Miami Center
Thu 04:07:11 PM 30.3436 -78.9897 194° South 411 473 34,000  Level Miami Center
Thu 04:08:11 PM 30.2328 -79.0189 193° South 411 473 34,000  Level Miami Center
Thu 04:09:11 PM 30.1197 -79.0478 192° South 413 475 34,000  Level Miami Center
Thu 04:10:11 PM 30.0403 -79.0700 194° South 405 466 34,000  Level Miami Center
Thu 04:11:11 PM 29.9167 -79.1081 195° South 399 459 34,000  Level Miami Center
Thu 04:12:11 PM 29.8078 -79.1344 192° South 399 459 34,000  Level Miami Center
Thu 04:13:11 PM 29.7008 -79.1681 195° South 399 459 34,000  Level Miami Center
Thu 04:14:11 PM 29.5900 -79.1919 191° South 399 459 34,000  Level Miami Center
Thu 04:15:11 PM 29.4769 -79.2183 191° South 399 459 34,000  Level Miami Center
Thu 04:16:11 PM 29.3719 -79.2517 195° South 399 459 34,000  Level Miami Center
Thu 04:21:33 PM 28.7737 -79.4092 195° South 398 458 34,000  Level FlightAware
Thu 04:24:32 PM 28.4602 -79.5440 201° Southwest 402 463 34,000  Level FlightAware
Thu 04:25:15 PM 28.3829 -79.5772 201° Southwest 403 464 34,000  Level FlightAware
Thu 04:26:05 PM 28.2961 -79.6144 201° Southwest 402 463 34,000  Level FlightAware
Thu 04:26:55 PM 28.2115 -79.6505 201° Southwest 402 463 34,000  Level FlightAware
Thu 04:27:33 PM 28.1460 -79.6785 201° Southwest 404 465 34,000  Level FlightAware
Thu 04:28:04 PM 28.0875 -79.7034 201° Southwest 406 467 34,000  Level FlightAware
Thu 04:29:03 PM 27.9906 -79.7447 201° Southwest 408 470 34,000  Level FlightAware
Thu 04:29:44 PM 27.9144 -79.7841 205° Southwest 399 459 34,000  Level FlightAware
Thu 04:30:25 PM 27.8597 -79.8295 216° Southwest 393 452 34,000  Level FlightAware
Thu 04:30:55 PM 27.8121 -79.8725 219° Southwest 393 452 34,000  Level FlightAware
Thu 04:31:26 PM 27.7677 -79.9141 220° Southwest 390 449 34,000  Level FlightAware
Thu 04:32:05 PM 27.7196 -79.9719 227° Southwest 388 447 34,000  Level FlightAware
Thu 04:32:46 PM 27.6787 -80.0292 231° Southwest 389 448 34,000  Level FlightAware
Thu 04:33:25 PM 27.6296 -80.0943 230° Southwest 397 457 34,000  Level FlightAware
Thu 04:34:05 PM 27.5767 -80.1574 227° Southwest 402 463 34,000  Level FlightAware
Thu 04:34:45 PM 27.5232 -80.2163 224° Southwest 402 463 34,000  Level FlightAware
Thu 04:35:26 PM 27.4706 -80.2639 219° Southwest 410 472 34,000  Level FlightAware
Thu 04:36:05 PM 27.3958 -80.3055 206° Southwest 425 489 34,000  Level FlightAware
Thu 04:36:55 PM 27.3008 -80.3326 194° South 428 493 34,000  Level FlightAware
Thu 04:37:33 PM 27.2589 -80.3461 196° South 429 494 34,000  Level FlightAware
Thu 04:38:16 PM 27.1459 -80.3807 195° South 423 487 34,000  Level FlightAware
Thu 04:39:14 PM 27.0342 -80.4142 195° South 421 484 34,000  Level FlightAware
Thu 04:39:46 PM 26.9754 -80.4318 195° South 422 486 34,000  Level FlightAware
Thu 04:40:16 PM 26.9188 -80.4487 195° South 423 487 34,000  Level FlightAware
Thu 04:40:48 PM 26.8591 -80.4665 195° South 422 486 34,000  Level FlightAware
Thu 04:41:59 PM 26.7238 -80.5069 195° South 418 481 34,000  Level FlightAware
Thu 04:43:23 PM 26.5696 -80.5528 195° South 420 483 34,000  Level FlightAware
Thu 04:44:03 PM 26.4900 -80.5764 195° South 420 483 34,000  Level FlightAware
Thu 04:44:56 PM 26.3928 -80.6052 195° South 421 484 34,000  Level FlightAware
Thu 04:46:11 PM 26.2631 -80.6444 195° South 419 482 34,000  Level Miami Center
Thu 04:47:11 PM 26.1433 -80.6778 194° South 419 482 34,000  Level Miami Center
Thu 04:48:11 PM 26.0294 -80.7156 197° South 419 482 34,000  Level Miami Center
Thu 04:49:11 PM 25.9136 -80.7489 195° South 424 488 34,000  Level Miami Center
Thu 04:50:11 PM 25.7981 -80.7844 195° South 424 488 34,000  Level Miami Center
Thu 04:51:11 PM 25.7000 -80.8481 210° Southwest 410 472 34,000  Level Miami Center
Thu 04:52:11 PM 25.6167 -80.9214 218° Southwest 419 482 34,000  Level Miami Center
Thu 04:53:11 PM 25.5247 -80.9942 216° Southwest 424 488 34,000  Level Miami Center
Thu 04:54:11 PM 25.4308 -81.0714 217° Southwest 424 488 34,000  Level Miami Center
Thu 04:55:11 PM 25.3367 -81.1486 217° Southwest 424 488 34,000  Level Miami Center
Thu 04:56:11 PM 25.2425 -81.2256 216° Southwest 424 488 34,000  Level Miami Center
Thu 04:57:11 PM 25.1506 -81.3003 216° Southwest 424 488 34,000  Level Miami Center
Thu 04:58:11 PM 25.0542 -81.3772 216° Southwest 424 488 34,000  Level Miami Center
Thu 04:59:11 PM 24.9619 -81.4539 217° Southwest 424 488 34,000  Level Miami Center
Thu 05:00:11 PM 24.8656 -81.5306 216° Southwest 424 488 34,000  Level Miami Center
Thu 05:01:11 PM 24.7775 -81.6050 218° Southwest 422 486 34,000  Level Miami Center
Thu 05:02:11 PM 24.6769 -81.6856 216° Southwest 427 491 34,000  Level Miami Center
Thu 05:03:11 PM 24.5825 -81.7617 216° Southwest 433 498 34,000  Level Miami Center
Thu 05:04:11 PM 24.5022 -81.8475 224° Southwest 442 509 34,000 -350 Level Miami Center
Thu 05:05:11 PM 24.4278 -81.9519 232° Southwest 427 491 33,300 -850 Descending Miami Center
Thu 05:06:11 PM 24.3511 -82.0536 230° Southwest 432 497 32,300 -1,400 Descending Miami Center
Thu 05:07:11 PM 24.2725 -82.1572 230° Southwest 439 505 30,500 -2,150 Descending Miami Center
Thu 05:08:11 PM 24.2017 -82.2658 234° Southwest 444 511 28,000 -2,450 Descending Miami Center
Thu 05:09:11 PM 24.1208 -82.3625 228° Southwest 439 505 25,600 -2,450 Descending Miami Center
Thu 05:10:11 PM 24.0233 -82.4581 222° Southwest 439 505 23,100 -2,400 Descending Miami Center
Thu 05:11:11 PM 23.9211 -82.5150 207° Southwest 426 490 20,800 -2,300 Descending Miami Center
Thu 05:13:00 PM 23.7065 -82.4773 175° South  Level FlightAware
Thu 05:20:00 PM 22.9891 -82.4091 180° South  Level Estimated
Thu 05:21:00 PM 22.9891 -82.4091 180° South  Level Estimated
Thu 05:22:00 PM 22.9891 -82.4091 180° South  Level Estimated
Thu 05:23:00 PM 22.9891 -82.4091 180° South  Level Estimated
Thu 05:24:00 PM 22.9891 -82.4091 180° South  Level Estimated
Thu 05:25:00 PM 22.9891 -82.4091 180° South  Level Estimated
Thu 05:26:00 PM 22.9891 -82.4091 180° South  Level Estimated
Thu 05:27:00 PM 22.9891 -82.4091 180° South  Level Estimated
Thu 05:28:00 PM 22.9891 -82.4091 180° South  Level Estimated
Thu 05:29:00 PM 22.9891 -82.4091 180° South  Level Estimated
Thu 05:30:00 PM 22.9891 -82.4091 180° South  Level Estimated
Thu 05:31:00 PM 22.9891 -82.4091 180° South  Level Estimated
Thu 05:32:00 PM 22.9891 -82.4091 180° South  Level Estimated
Thu 05:33:00 PM 22.9891 -82.4091 180° South  Level Estimated
Thu 05:34:00 PM 22.9891 -82.4091 180° South  Level Estimated
Thu 05:35:00 PM 22.9891 -82.4091 180° South  Level Estimated
Thu 05:36:00 PM 22.9891 -82.4091 180° South  Level Estimated
Thu 05:37:00 PM 22.9891 -82.4091 180° South  Level Estimated
Thu 05:38:00 PM 22.9891 -82.4091 180° South  Level Estimated
Thu 05:39:00 PM 22.9891 -82.4091 180° South  Level Estimated
Thu 05:40:00 PM 22.9891 -82.4091 180° South  Level Estimated
Thu 05:41:00 PM 22.9891 -82.4091 180° South  Level Estimated
Thu 05:42:00 PM 22.9891 -82.4091 180° South  Level Estimated

Login

Don't have an account? Register now (free) for customized features, flight alerts, and more!